Aérodrome :
LOGIN :

S'inscrire | Disclaimer

   EN    FR    IT 

 










Légende :    VFR   VFR Marginal   IFR   IFR Intensif   IFR Très Intensif
Visi : 
Plafond : 
>= 8 km
>= 3000ft
5 à 8 km
1000 à 3000 ft
1500m à 5 km
500 à 1000 ft
800 à 1500m
200 à 500 ft
< 800m
< 200 ft
Symboles :   Orages  Brouillard  Fortes neiges  Fortes précipitations  Vent > 20 kt
SIGMETs :   Divers  Orages  Givrage  Turbulence  Onde Orograph.  Cendres Volcan.






- Altitude de l'aérodrome : 197 ft
- Code IATA : XOG


LFMO - Orange

DERNIER METAR :
  • 281300Z AUTO 34011KT 300V010 CAVOK 29/08 Q1021 NOSIG

METARs EXPIRÉS :
  • 281230Z AUTO 32011KT 290V360 CAVOK 29/08 Q1022 NOSIG
  • 281200Z AUTO 35011KT 310V010 CAVOK 28/09 Q1022 NOSIG
  • 281130Z AUTO 33011KT 290V360 CAVOK 28/09 Q1023 NOSIG
  • 281100Z AUTO 35008KT 300V030 CAVOK 27/09 Q1023 NOSIG
  • 281030Z AUTO 34011KT 300V010 CAVOK 27/10 Q1024 NOSIG

TAF TAF LFMO
Valide du 28 à 09h jusqu'au 29 à 09h UTC


280800Z 2809/2909 34005KT CAVOK
BECMG 2813/2815 36010G20KT



MET'MAP, la Météo Aéronautique d'un coup d'oeil ! - Copyright ORBIFLY Décembre 2007 - Disclaimer

ORBIFLY MET'MAP TEAM :

Programmation & Développement : Alexandra Zaïnal
Sur une idée originale de : Baudouin d'Aumeries
Assistance à la programmation : Marc-Olivier Méhu
Soutien technique & logistique : Manuel Goepfert

Contact : metmap@orbifly.com




SOURCES & CREDITS :

   NOAA